aviador You're here:

KS32 Decoded Metar

in
Report Time2017-04-28 08:15:00
UTC Time2017-04-28 08:11:51
Flight Rules vfr VFR
Wind300° at 06 kt
W.Rank300° ranks 1
Current wind is below 300° avg. (11.9)
Visibility9999 m
Phenomena:N/A
Clouds:N/A
Expected CloudBase > 400 ft AGL from Temp-Dew spread
CeilingNone
Temp-1°C
Dew Point-2°C (93% RH)
AAT-5.4°C
QNH1011 hPa
Raw Report
KS32 280815Z AUTO 30006KT 10SM CLR M01/M02 A2986 RMK AO2=

Extra information for KS32:More info

Social comments